sensor_id;sensor_type;location;lat;lon;timestamp;P1;durP1;ratioP1;P2;durP2;ratioP2
4460;SDS011;2243;48.812;9.232;2022-12-05T00:00:11;21.23;;;10.40;;
4460;SDS011;2243;48.812;9.232;2022-12-05T00:02:43;21.10;;;11.07;;
4460;SDS011;2243;48.812;9.232;2022-12-05T00:05:14;18.83;;;10.30;;
4460;SDS011;2243;48.812;9.232;2022-12-05T00:07:45;16.10;;;10.27;;
4460;SDS011;2243;48.812;9.232;2022-12-05T00:10:17;20.90;;;10.40;;
4460;SDS011;2243;48.812;9.232;2022-12-05T00:12:48;20.70;;;10.30;;
4460;SDS011;2243;48.812;9.232;2022-12-05T00:15:19;22.80;;;10.70;;
4460;SDS011;2243;48.812;9.232;2022-12-05T00:17:49;20.33;;;10.83;;
4460;SDS011;2243;48.812;9.232;2022-12-05T00:20:20;20.00;;;9.97;;
4460;SDS011;2243;48.812;9.232;2022-12-05T00:22:51;16.67;;;9.70;;
4460;SDS011;2243;48.812;9.232;2022-12-05T00:25:22;16.47;;;10.10;;
4460;SDS011;2243;48.812;9.232;2022-12-05T00:27:53;21.37;;;11.00;;
4460;SDS011;2243;48.812;9.232;2022-12-05T00:30:24;19.17;;;10.83;;
4460;SDS011;2243;48.812;9.232;2022-12-05T00:32:55;17.80;;;10.63;;
4460;SDS011;2243;48.812;9.232;2022-12-05T00:35:27;21.70;;;10.90;;
4460;SDS011;2243;48.812;9.232;2022-12-05T00:38:02;18.17;;;10.53;;
4460;SDS011;2243;48.812;9.232;2022-12-05T00:40:34;22.53;;;9.77;;
4460;SDS011;2243;48.812;9.232;2022-12-05T00:43:06;22.50;;;10.73;;
4460;SDS011;2243;48.812;9.232;2022-12-05T00:45:36;19.17;;;9.73;;
4460;SDS011;2243;48.812;9.232;2022-12-05T00:48:08;21.80;;;11.13;;
4460;SDS011;2243;48.812;9.232;2022-12-05T00:50:38;20.70;;;10.57;;
4460;SDS011;2243;48.812;9.232;2022-12-05T00:53:09;22.07;;;11.50;;
4460;SDS011;2243;48.812;9.232;2022-12-05T00:55:40;19.07;;;10.00;;
4460;SDS011;2243;48.812;9.232;2022-12-05T00:58:11;20.83;;;10.37;;
4460;SDS011;2243;48.812;9.232;2022-12-05T01:00:42;16.13;;;9.60;;
4460;SDS011;2243;48.812;9.232;2022-12-05T01:03:13;19.83;;;10.60;;
4460;SDS011;2243;48.812;9.232;2022-12-05T01:05:44;15.37;;;9.50;;
4460;SDS011;2243;48.812;9.232;2022-12-05T01:08:15;22.00;;;10.17;;
4460;SDS011;2243;48.812;9.232;2022-12-05T01:10:53;16.80;;;9.83;;
4460;SDS011;2243;48.812;9.232;2022-12-05T01:13:25;18.20;;;10.77;;
4460;SDS011;2243;48.812;9.232;2022-12-05T01:15:57;22.20;;;10.53;;
4460;SDS011;2243;48.812;9.232;2022-12-05T01:18:28;14.63;;;10.37;;
4460;SDS011;2243;48.812;9.232;2022-12-05T01:21:03;19.30;;;10.27;;
4460;SDS011;2243;48.812;9.232;2022-12-05T01:23:35;16.40;;;9.23;;
4460;SDS011;2243;48.812;9.232;2022-12-05T01:26:08;14.90;;;8.87;;
4460;SDS011;2243;48.812;9.232;2022-12-05T01:28:42;19.70;;;10.30;;
4460;SDS011;2243;48.812;9.232;2022-12-05T01:31:20;18.67;;;9.47;;
4460;SDS011;2243;48.812;9.232;2022-12-05T01:33:55;15.10;;;9.70;;
4460;SDS011;2243;48.812;9.232;2022-12-05T01:36:28;20.30;;;9.63;;
4460;SDS011;2243;48.812;9.232;2022-12-05T01:38:59;17.23;;;10.83;;
4460;SDS011;2243;48.812;9.232;2022-12-05T01:41:31;14.00;;;9.10;;
4460;SDS011;2243;48.812;9.232;2022-12-05T01:46:45;12.73;;;8.60;;
4460;SDS011;2243;48.812;9.232;2022-12-05T01:51:53;18.40;;;9.43;;
4460;SDS011;2243;48.812;9.232;2022-12-05T01:54:27;15.87;;;9.20;;
4460;SDS011;2243;48.812;9.232;2022-12-05T01:57:00;16.03;;;8.70;;
4460;SDS011;2243;48.812;9.232;2022-12-05T01:59:35;16.43;;;9.57;;
4460;SDS011;2243;48.812;9.232;2022-12-05T02:02:10;12.37;;;8.03;;
4460;SDS011;2243;48.812;9.232;2022-12-05T02:04:49;18.67;;;8.70;;
4460;SDS011;2243;48.812;9.232;2022-12-05T02:07:35;16.03;;;8.10;;
4460;SDS011;2243;48.812;9.232;2022-12-05T02:10:09;19.43;;;9.83;;
4460;SDS011;2243;48.812;9.232;2022-12-05T02:12:40;13.10;;;8.20;;
4460;SDS011;2243;48.812;9.232;2022-12-05T02:21:49;17.03;;;8.93;;
4460;SDS011;2243;48.812;9.232;2022-12-05T02:24:47;11.60;;;7.80;;
4460;SDS011;2243;48.812;9.232;2022-12-05T02:30:20;12.83;;;8.10;;
4460;SDS011;2243;48.812;9.232;2022-12-05T02:33:03;12.83;;;8.13;;
4460;SDS011;2243;48.812;9.232;2022-12-05T02:41:20;14.00;;;7.70;;
4460;SDS011;2243;48.812;9.232;2022-12-05T02:44:06;11.30;;;7.83;;
4460;SDS011;2243;48.812;9.232;2022-12-05T02:46:46;11.10;;;6.90;;
4460;SDS011;2243;48.812;9.232;2022-12-05T02:49:22;11.67;;;7.57;;
4460;SDS011;2243;48.812;9.232;2022-12-05T02:52:01;11.87;;;8.87;;
4460;SDS011;2243;48.812;9.232;2022-12-05T02:54:37;9.40;;;7.20;;
4460;SDS011;2243;48.812;9.232;2022-12-05T02:57:11;13.67;;;7.90;;
4460;SDS011;2243;48.812;9.232;2022-12-05T02:59:44;13.50;;;7.97;;
4460;SDS011;2243;48.812;9.232;2022-12-05T03:02:23;15.00;;;9.30;;
4460;SDS011;2243;48.812;9.232;2022-12-05T03:08:10;16.67;;;7.50;;
4460;SDS011;2243;48.812;9.232;2022-12-05T03:10:48;16.53;;;8.57;;
4460;SDS011;2243;48.812;9.232;2022-12-05T03:13:57;14.60;;;8.73;;
4460;SDS011;2243;48.812;9.232;2022-12-05T03:16:32;16.60;;;9.03;;
4460;SDS011;2243;48.812;9.232;2022-12-05T03:19:21;19.13;;;9.17;;
4460;SDS011;2243;48.812;9.232;2022-12-05T03:22:06;15.90;;;9.00;;
4460;SDS011;2243;48.812;9.232;2022-12-05T03:25:04;15.90;;;8.73;;
4460;SDS011;2243;48.812;9.232;2022-12-05T03:30:23;11.20;;;6.80;;
4460;SDS011;2243;48.812;9.232;2022-12-05T03:33:10;16.97;;;7.77;;
4460;SDS011;2243;48.812;9.232;2022-12-05T03:35:51;15.33;;;9.20;;
4460;SDS011;2243;48.812;9.232;2022-12-05T03:38:34;15.07;;;8.40;;
4460;SDS011;2243;48.812;9.232;2022-12-05T03:41:18;15.07;;;8.80;;
4460;SDS011;2243;48.812;9.232;2022-12-05T03:44:20;12.47;;;7.57;;
4460;SDS011;2243;48.812;9.232;2022-12-05T03:50:31;13.67;;;8.30;;
4460;SDS011;2243;48.812;9.232;2022-12-05T03:53:06;19.63;;;8.70;;
4460;SDS011;2243;48.812;9.232;2022-12-05T03:55:58;18.50;;;9.83;;
4460;SDS011;2243;48.812;9.232;2022-12-05T03:58:38;16.83;;;9.43;;
4460;SDS011;2243;48.812;9.232;2022-12-05T04:01:20;13.87;;;9.10;;
4460;SDS011;2243;48.812;9.232;2022-12-05T04:04:00;18.30;;;9.80;;
4460;SDS011;2243;48.812;9.232;2022-12-05T04:06:50;17.27;;;9.47;;
4460;SDS011;2243;48.812;9.232;2022-12-05T04:09:30;15.90;;;10.00;;
4460;SDS011;2243;48.812;9.232;2022-12-05T04:12:21;14.90;;;8.40;;
4460;SDS011;2243;48.812;9.232;2022-12-05T04:14:58;14.63;;;8.83;;
4460;SDS011;2243;48.812;9.232;2022-12-05T04:17:49;20.67;;;9.13;;
4460;SDS011;2243;48.812;9.232;2022-12-05T04:20:38;16.80;;;9.83;;
4460;SDS011;2243;48.812;9.232;2022-12-05T04:23:29;21.20;;;10.10;;
4460;SDS011;2243;48.812;9.232;2022-12-05T04:29:09;17.00;;;9.40;;
4460;SDS011;2243;48.812;9.232;2022-12-05T04:31:48;19.80;;;9.67;;
4460;SDS011;2243;48.812;9.232;2022-12-05T04:34:27;19.33;;;9.80;;
4460;SDS011;2243;48.812;9.232;2022-12-05T04:37:01;13.90;;;8.90;;
4460;SDS011;2243;48.812;9.232;2022-12-05T04:39:40;15.53;;;9.57;;
4460;SDS011;2243;48.812;9.232;2022-12-05T04:42:20;18.53;;;8.87;;
4460;SDS011;2243;48.812;9.232;2022-12-05T04:45:00;14.13;;;8.67;;
4460;SDS011;2243;48.812;9.232;2022-12-05T04:47:40;15.33;;;9.40;;
4460;SDS011;2243;48.812;9.232;2022-12-05T04:50:16;21.17;;;10.57;;
4460;SDS011;2243;48.812;9.232;2022-12-05T04:52:48;21.10;;;9.83;;
4460;SDS011;2243;48.812;9.232;2022-12-05T04:55:23;16.70;;;9.37;;
4460;SDS011;2243;48.812;9.232;2022-12-05T04:58:07;19.83;;;9.13;;
4460;SDS011;2243;48.812;9.232;2022-12-05T05:04:16;17.63;;;8.40;;
4460;SDS011;2243;48.812;9.232;2022-12-05T05:07:10;16.10;;;9.27;;
4460;SDS011;2243;48.812;9.232;2022-12-05T05:09:43;18.20;;;10.00;;
4460;SDS011;2243;48.812;9.232;2022-12-05T05:12:17;15.23;;;9.53;;
4460;SDS011;2243;48.812;9.232;2022-12-05T05:14:48;15.40;;;9.67;;
4460;SDS011;2243;48.812;9.232;2022-12-05T05:17:19;18.00;;;10.00;;
4460;SDS011;2243;48.812;9.232;2022-12-05T05:19:51;17.70;;;10.10;;
4460;SDS011;2243;48.812;9.232;2022-12-05T05:22:49;13.83;;;9.03;;
4460;SDS011;2243;48.812;9.232;2022-12-05T05:25:21;16.47;;;9.27;;
4460;SDS011;2243;48.812;9.232;2022-12-05T05:27:54;14.47;;;9.17;;
4460;SDS011;2243;48.812;9.232;2022-12-05T05:30:26;17.80;;;9.87;;
4460;SDS011;2243;48.812;9.232;2022-12-05T05:32:58;17.10;;;9.07;;
4460;SDS011;2243;48.812;9.232;2022-12-05T05:35:29;16.40;;;9.77;;
4460;SDS011;2243;48.812;9.232;2022-12-05T05:38:00;22.93;;;8.80;;
4460;SDS011;2243;48.812;9.232;2022-12-05T05:40:33;15.47;;;8.70;;
4460;SDS011;2243;48.812;9.232;2022-12-05T05:43:06;20.37;;;10.47;;
4460;SDS011;2243;48.812;9.232;2022-12-05T05:45:37;18.70;;;9.80;;
4460;SDS011;2243;48.812;9.232;2022-12-05T05:48:08;18.90;;;10.40;;
4460;SDS011;2243;48.812;9.232;2022-12-05T05:50:39;14.63;;;8.80;;
4460;SDS011;2243;48.812;9.232;2022-12-05T05:53:09;19.37;;;9.73;;
4460;SDS011;2243;48.812;9.232;2022-12-05T05:55:41;19.10;;;8.73;;
4460;SDS011;2243;48.812;9.232;2022-12-05T05:58:12;23.57;;;10.47;;
4460;SDS011;2243;48.812;9.232;2022-12-05T06:00:43;18.47;;;9.53;;
4460;SDS011;2243;48.812;9.232;2022-12-05T06:03:15;18.13;;;10.13;;
4460;SDS011;2243;48.812;9.232;2022-12-05T06:05:55;15.20;;;8.93;;
4460;SDS011;2243;48.812;9.232;2022-12-05T06:08:31;15.63;;;10.07;;
4460;SDS011;2243;48.812;9.232;2022-12-05T06:11:04;16.20;;;9.13;;
4460;SDS011;2243;48.812;9.232;2022-12-05T06:13:40;16.10;;;9.83;;
4460;SDS011;2243;48.812;9.232;2022-12-05T06:16:12;21.40;;;10.27;;
4460;SDS011;2243;48.812;9.232;2022-12-05T06:18:45;22.80;;;10.57;;
4460;SDS011;2243;48.812;9.232;2022-12-05T06:21:18;18.30;;;9.60;;
4460;SDS011;2243;48.812;9.232;2022-12-05T06:23:50;18.17;;;10.10;;
4460;SDS011;2243;48.812;9.232;2022-12-05T06:26:34;16.23;;;8.83;;
4460;SDS011;2243;48.812;9.232;2022-12-05T06:29:11;14.87;;;9.70;;
4460;SDS011;2243;48.812;9.232;2022-12-05T06:31:42;16.20;;;9.20;;
4460;SDS011;2243;48.812;9.232;2022-12-05T06:34:13;19.50;;;10.17;;
4460;SDS011;2243;48.812;9.232;2022-12-05T06:36:44;14.43;;;8.23;;
4460;SDS011;2243;48.812;9.232;2022-12-05T06:39:15;18.63;;;9.63;;
4460;SDS011;2243;48.812;9.232;2022-12-05T06:41:46;20.90;;;10.37;;
4460;SDS011;2243;48.812;9.232;2022-12-05T06:44:17;14.00;;;8.77;;
4460;SDS011;2243;48.812;9.232;2022-12-05T06:46:52;17.70;;;10.97;;
4460;SDS011;2243;48.812;9.232;2022-12-05T06:49:23;14.33;;;9.30;;
4460;SDS011;2243;48.812;9.232;2022-12-05T06:52:02;14.77;;;9.00;;
4460;SDS011;2243;48.812;9.232;2022-12-05T06:54:33;16.83;;;9.00;;
4460;SDS011;2243;48.812;9.232;2022-12-05T06:57:04;14.17;;;8.17;;
4460;SDS011;2243;48.812;9.232;2022-12-05T06:59:35;15.77;;;8.93;;
4460;SDS011;2243;48.812;9.232;2022-12-05T07:02:07;20.43;;;9.87;;
4460;SDS011;2243;48.812;9.232;2022-12-05T07:04:40;23.13;;;10.27;;
4460;SDS011;2243;48.812;9.232;2022-12-05T07:07:11;14.53;;;9.60;;
4460;SDS011;2243;48.812;9.232;2022-12-05T07:09:42;13.73;;;9.27;;
4460;SDS011;2243;48.812;9.232;2022-12-05T07:12:20;17.03;;;10.30;;
4460;SDS011;2243;48.812;9.232;2022-12-05T07:14:51;17.63;;;9.43;;
4460;SDS011;2243;48.812;9.232;2022-12-05T07:17:22;15.03;;;8.67;;
4460;SDS011;2243;48.812;9.232;2022-12-05T07:19:53;17.13;;;10.40;;
4460;SDS011;2243;48.812;9.232;2022-12-05T07:22:24;17.20;;;10.13;;
4460;SDS011;2243;48.812;9.232;2022-12-05T07:24:55;13.07;;;8.87;;
4460;SDS011;2243;48.812;9.232;2022-12-05T07:27:26;15.57;;;9.93;;
4460;SDS011;2243;48.812;9.232;2022-12-05T07:29:57;17.77;;;9.80;;
4460;SDS011;2243;48.812;9.232;2022-12-05T07:32:32;19.13;;;9.87;;
4460;SDS011;2243;48.812;9.232;2022-12-05T07:35:03;16.83;;;10.30;;
4460;SDS011;2243;48.812;9.232;2022-12-05T07:37:35;13.83;;;9.00;;
4460;SDS011;2243;48.812;9.232;2022-12-05T07:40:06;18.00;;;9.33;;
4460;SDS011;2243;48.812;9.232;2022-12-05T07:42:38;14.63;;;9.23;;
4460;SDS011;2243;48.812;9.232;2022-12-05T07:45:09;18.90;;;9.10;;
4460;SDS011;2243;48.812;9.232;2022-12-05T07:47:40;15.33;;;10.50;;
4460;SDS011;2243;48.812;9.232;2022-12-05T07:50:11;16.10;;;7.93;;
4460;SDS011;2243;48.812;9.232;2022-12-05T07:52:43;17.20;;;10.50;;
4460;SDS011;2243;48.812;9.232;2022-12-05T07:55:13;17.87;;;10.50;;
4460;SDS011;2243;48.812;9.232;2022-12-05T07:57:44;15.10;;;9.77;;
4460;SDS011;2243;48.812;9.232;2022-12-05T08:00:15;16.60;;;9.60;;
4460;SDS011;2243;48.812;9.232;2022-12-05T08:02:47;18.23;;;9.87;;
4460;SDS011;2243;48.812;9.232;2022-12-05T08:05:18;17.37;;;10.33;;
4460;SDS011;2243;48.812;9.232;2022-12-05T08:07:49;17.30;;;9.60;;
4460;SDS011;2243;48.812;9.232;2022-12-05T08:10:20;20.97;;;10.50;;
4460;SDS011;2243;48.812;9.232;2022-12-05T08:12:51;15.03;;;8.93;;
4460;SDS011;2243;48.812;9.232;2022-12-05T08:15:24;14.77;;;9.30;;
4460;SDS011;2243;48.812;9.232;2022-12-05T08:17:55;14.93;;;9.53;;
4460;SDS011;2243;48.812;9.232;2022-12-05T08:20:26;13.47;;;9.73;;
4460;SDS011;2243;48.812;9.232;2022-12-05T08:22:57;13.67;;;8.83;;
4460;SDS011;2243;48.812;9.232;2022-12-05T08:25:28;15.47;;;8.63;;
4460;SDS011;2243;48.812;9.232;2022-12-05T08:27:59;13.03;;;8.90;;
4460;SDS011;2243;48.812;9.232;2022-12-05T08:30:30;19.27;;;10.17;;
4460;SDS011;2243;48.812;9.232;2022-12-05T08:33:03;14.30;;;9.40;;
4460;SDS011;2243;48.812;9.232;2022-12-05T08:35:35;19.50;;;10.33;;
4460;SDS011;2243;48.812;9.232;2022-12-05T08:38:06;11.40;;;8.90;;
4460;SDS011;2243;48.812;9.232;2022-12-05T08:40:37;14.93;;;9.67;;
4460;SDS011;2243;48.812;9.232;2022-12-05T08:43:08;17.17;;;9.87;;
4460;SDS011;2243;48.812;9.232;2022-12-05T08:45:39;14.37;;;9.03;;
4460;SDS011;2243;48.812;9.232;2022-12-05T08:48:10;13.57;;;9.23;;
4460;SDS011;2243;48.812;9.232;2022-12-05T08:50:41;16.93;;;9.63;;
4460;SDS011;2243;48.812;9.232;2022-12-05T08:53:12;15.53;;;9.50;;
4460;SDS011;2243;48.812;9.232;2022-12-05T08:55:43;14.20;;;8.83;;
4460;SDS011;2243;48.812;9.232;2022-12-05T08:58:17;13.07;;;9.20;;
4460;SDS011;2243;48.812;9.232;2022-12-05T09:00:48;17.47;;;10.67;;
4460;SDS011;2243;48.812;9.232;2022-12-05T09:03:19;15.03;;;8.83;;
4460;SDS011;2243;48.812;9.232;2022-12-05T09:05:49;12.53;;;9.47;;
4460;SDS011;2243;48.812;9.232;2022-12-05T09:08:24;18.67;;;10.33;;
4460;SDS011;2243;48.812;9.232;2022-12-05T09:10:55;12.97;;;8.67;;
4460;SDS011;2243;48.812;9.232;2022-12-05T09:13:25;15.23;;;9.50;;
4460;SDS011;2243;48.812;9.232;2022-12-05T09:15:56;15.50;;;9.63;;
4460;SDS011;2243;48.812;9.232;2022-12-05T09:18:27;14.37;;;8.77;;
4460;SDS011;2243;48.812;9.232;2022-12-05T09:21:03;10.37;;;7.87;;
4460;SDS011;2243;48.812;9.232;2022-12-05T09:23:43;14.03;;;9.27;;
4460;SDS011;2243;48.812;9.232;2022-12-05T09:26:15;14.77;;;8.90;;
4460;SDS011;2243;48.812;9.232;2022-12-05T09:28:50;9.90;;;7.37;;
4460;SDS011;2243;48.812;9.232;2022-12-05T09:31:23;16.07;;;8.50;;
4460;SDS011;2243;48.812;9.232;2022-12-05T09:33:56;12.13;;;8.30;;
4460;SDS011;2243;48.812;9.232;2022-12-05T09:36:28;16.10;;;9.23;;
4460;SDS011;2243;48.812;9.232;2022-12-05T09:39:03;15.47;;;8.87;;
4460;SDS011;2243;48.812;9.232;2022-12-05T09:50:56;12.03;;;8.13;;
4460;SDS011;2243;48.812;9.232;2022-12-05T09:53:33;11.40;;;8.40;;
4460;SDS011;2243;48.812;9.232;2022-12-05T09:56:20;10.27;;;7.03;;
4460;SDS011;2243;48.812;9.232;2022-12-05T09:58:57;14.97;;;8.43;;
4460;SDS011;2243;48.812;9.232;2022-12-05T10:10:21;14.40;;;7.87;;
4460;SDS011;2243;48.812;9.232;2022-12-05T10:16:22;10.30;;;7.83;;
4460;SDS011;2243;48.812;9.232;2022-12-05T10:19:17;12.90;;;8.60;;
4460;SDS011;2243;48.812;9.232;2022-12-05T10:21:56;10.03;;;7.60;;
4460;SDS011;2243;48.812;9.232;2022-12-05T10:24:59;10.70;;;8.67;;
4460;SDS011;2243;48.812;9.232;2022-12-05T10:27:35;13.40;;;8.80;;
4460;SDS011;2243;48.812;9.232;2022-12-05T10:30:20;12.23;;;7.33;;
4460;SDS011;2243;48.812;9.232;2022-12-05T10:33:00;13.10;;;7.90;;
4460;SDS011;2243;48.812;9.232;2022-12-05T10:35:43;12.53;;;8.30;;
4460;SDS011;2243;48.812;9.232;2022-12-05T10:38:47;10.30;;;7.67;;
4460;SDS011;2243;48.812;9.232;2022-12-05T10:41:13;11.80;;;8.03;;
4460;SDS011;2243;48.812;9.232;2022-12-05T10:43:44;9.67;;;8.07;;
4460;SDS011;2243;48.812;9.232;2022-12-05T10:46:15;12.50;;;8.77;;
4460;SDS011;2243;48.812;9.232;2022-12-05T10:48:47;15.40;;;11.53;;
4460;SDS011;2243;48.812;9.232;2022-12-05T10:51:19;11.57;;;8.50;;
4460;SDS011;2243;48.812;9.232;2022-12-05T10:54:01;14.03;;;9.07;;
4460;SDS011;2243;48.812;9.232;2022-12-05T10:59:19;15.60;;;9.40;;
4460;SDS011;2243;48.812;9.232;2022-12-05T11:01:57;11.23;;;8.53;;
4460;SDS011;2243;48.812;9.232;2022-12-05T11:04:30;12.33;;;8.10;;
4460;SDS011;2243;48.812;9.232;2022-12-05T11:07:22;14.20;;;9.90;;
4460;SDS011;2243;48.812;9.232;2022-12-05T11:13:13;16.80;;;9.20;;
4460;SDS011;2243;48.812;9.232;2022-12-05T11:15:54;21.90;;;9.70;;
4460;SDS011;2243;48.812;9.232;2022-12-05T11:21:10;14.77;;;9.67;;
4460;SDS011;2243;48.812;9.232;2022-12-05T11:23:43;10.80;;;8.13;;
4460;SDS011;2243;48.812;9.232;2022-12-05T11:26:17;12.83;;;8.63;;
4460;SDS011;2243;48.812;9.232;2022-12-05T11:29:23;14.50;;;8.60;;
4460;SDS011;2243;48.812;9.232;2022-12-05T11:32:02;14.20;;;8.87;;
4460;SDS011;2243;48.812;9.232;2022-12-05T11:34:46;17.03;;;9.23;;
4460;SDS011;2243;48.812;9.232;2022-12-05T11:37:24;13.23;;;9.03;;
4460;SDS011;2243;48.812;9.232;2022-12-05T11:40:02;13.27;;;9.00;;
4460;SDS011;2243;48.812;9.232;2022-12-05T11:51:43;13.57;;;8.70;;
4460;SDS011;2243;48.812;9.232;2022-12-05T11:54:38;13.50;;;8.67;;
4460;SDS011;2243;48.812;9.232;2022-12-05T12:06:28;16.33;;;8.87;;
4460;SDS011;2243;48.812;9.232;2022-12-05T12:12:08;11.80;;;8.60;;
4460;SDS011;2243;48.812;9.232;2022-12-05T12:27:35;15.07;;;9.03;;
4460;SDS011;2243;48.812;9.232;2022-12-05T12:30:50;11.40;;;8.90;;
4460;SDS011;2243;48.812;9.232;2022-12-05T12:36:45;14.17;;;9.23;;
4460;SDS011;2243;48.812;9.232;2022-12-05T12:42:21;14.53;;;8.77;;
4460;SDS011;2243;48.812;9.232;2022-12-05T12:51:41;16.20;;;9.80;;
4460;SDS011;2243;48.812;9.232;2022-12-05T13:06:28;10.60;;;8.97;;
4460;SDS011;2243;48.812;9.232;2022-12-05T13:11:50;18.50;;;10.37;;
4460;SDS011;2243;48.812;9.232;2022-12-05T13:14:23;20.57;;;9.90;;
4460;SDS011;2243;48.812;9.232;2022-12-05T13:16:56;13.27;;;9.13;;
4460;SDS011;2243;48.812;9.232;2022-12-05T13:19:35;14.43;;;10.10;;
4460;SDS011;2243;48.812;9.232;2022-12-05T13:22:16;15.90;;;9.87;;
4460;SDS011;2243;48.812;9.232;2022-12-05T13:24:50;17.23;;;10.90;;
4460;SDS011;2243;48.812;9.232;2022-12-05T13:27:23;14.00;;;9.20;;
4460;SDS011;2243;48.812;9.232;2022-12-05T13:29:58;14.13;;;9.77;;
4460;SDS011;2243;48.812;9.232;2022-12-05T13:32:42;12.80;;;9.47;;
4460;SDS011;2243;48.812;9.232;2022-12-05T13:35:20;13.27;;;9.70;;
4460;SDS011;2243;48.812;9.232;2022-12-05T13:38:31;14.40;;;9.60;;
4460;SDS011;2243;48.812;9.232;2022-12-05T13:41:38;13.37;;;9.67;;
4460;SDS011;2243;48.812;9.232;2022-12-05T13:44:38;13.20;;;9.47;;
4460;SDS011;2243;48.812;9.232;2022-12-05T13:50:16;17.17;;;10.93;;
4460;SDS011;2243;48.812;9.232;2022-12-05T13:53:02;14.10;;;9.70;;
4460;SDS011;2243;48.812;9.232;2022-12-05T13:55:56;15.27;;;10.73;;
4460;SDS011;2243;48.812;9.232;2022-12-05T14:03:57;12.50;;;9.67;;
4460;SDS011;2243;48.812;9.232;2022-12-05T14:17:31;20.90;;;13.30;;
4460;SDS011;2243;48.812;9.232;2022-12-05T14:26:10;13.17;;;9.57;;
4460;SDS011;2243;48.812;9.232;2022-12-05T14:35:12;12.10;;;8.83;;
4460;SDS011;2243;48.812;9.232;2022-12-05T14:38:27;16.73;;;10.40;;
4460;SDS011;2243;48.812;9.232;2022-12-05T14:44:15;14.67;;;9.80;;
4460;SDS011;2243;48.812;9.232;2022-12-05T14:46:48;14.50;;;8.60;;
4460;SDS011;2243;48.812;9.232;2022-12-05T14:50:22;10.47;;;8.50;;
4460;SDS011;2243;48.812;9.232;2022-12-05T14:52:31;14.50;;;9.73;;
4460;SDS011;2243;48.812;9.232;2022-12-05T14:55:04;11.53;;;8.20;;
4460;SDS011;2243;48.812;9.232;2022-12-05T14:57:46;14.90;;;10.03;;
4460;SDS011;2243;48.812;9.232;2022-12-05T15:00:20;10.60;;;9.27;;
4460;SDS011;2243;48.812;9.232;2022-12-05T15:02:52;14.93;;;9.47;;
4460;SDS011;2243;48.812;9.232;2022-12-05T15:05:25;12.30;;;8.70;;
4460;SDS011;2243;48.812;9.232;2022-12-05T15:08:01;11.37;;;9.40;;
4460;SDS011;2243;48.812;9.232;2022-12-05T15:10:34;15.37;;;9.30;;
4460;SDS011;2243;48.812;9.232;2022-12-05T15:13:15;13.90;;;9.60;;
4460;SDS011;2243;48.812;9.232;2022-12-05T15:16:05;10.00;;;8.87;;
4460;SDS011;2243;48.812;9.232;2022-12-05T15:18:50;10.10;;;8.13;;
4460;SDS011;2243;48.812;9.232;2022-12-05T15:24:04;11.70;;;9.80;;
4460;SDS011;2243;48.812;9.232;2022-12-05T15:26:49;12.33;;;9.17;;
4460;SDS011;2243;48.812;9.232;2022-12-05T15:29:27;15.67;;;9.53;;
4460;SDS011;2243;48.812;9.232;2022-12-05T15:32:05;15.10;;;9.60;;
4460;SDS011;2243;48.812;9.232;2022-12-05T15:34:52;12.50;;;9.13;;
4460;SDS011;2243;48.812;9.232;2022-12-05T15:37:49;17.87;;;10.37;;
4460;SDS011;2243;48.812;9.232;2022-12-05T15:40:24;16.80;;;10.00;;
4460;SDS011;2243;48.812;9.232;2022-12-05T15:42:57;16.10;;;10.80;;
4460;SDS011;2243;48.812;9.232;2022-12-05T15:45:28;14.50;;;9.50;;
4460;SDS011;2243;48.812;9.232;2022-12-05T15:50:45;11.70;;;8.80;;
4460;SDS011;2243;48.812;9.232;2022-12-05T15:53:36;15.30;;;9.57;;
4460;SDS011;2243;48.812;9.232;2022-12-05T16:01:38;13.47;;;10.37;;
4460;SDS011;2243;48.812;9.232;2022-12-05T16:04:37;13.97;;;9.47;;
4460;SDS011;2243;48.812;9.232;2022-12-05T16:07:17;14.73;;;9.97;;
4460;SDS011;2243;48.812;9.232;2022-12-05T16:09:50;12.70;;;10.30;;
4460;SDS011;2243;48.812;9.232;2022-12-05T16:12:37;11.97;;;9.40;;
4460;SDS011;2243;48.812;9.232;2022-12-05T16:15:20;15.07;;;8.87;;
4460;SDS011;2243;48.812;9.232;2022-12-05T16:17:57;12.23;;;9.60;;
4460;SDS011;2243;48.812;9.232;2022-12-05T16:20:31;14.60;;;9.80;;
4460;SDS011;2243;48.812;9.232;2022-12-05T16:23:20;16.47;;;9.80;;
4460;SDS011;2243;48.812;9.232;2022-12-05T16:26:08;14.90;;;10.20;;
4460;SDS011;2243;48.812;9.232;2022-12-05T16:28:54;14.83;;;9.10;;
4460;SDS011;2243;48.812;9.232;2022-12-05T16:31:31;14.87;;;9.90;;
4460;SDS011;2243;48.812;9.232;2022-12-05T16:36:36;18.13;;;11.17;;
4460;SDS011;2243;48.812;9.232;2022-12-05T16:39:20;14.50;;;9.80;;
4460;SDS011;2243;48.812;9.232;2022-12-05T16:41:51;12.90;;;9.50;;
4460;SDS011;2243;48.812;9.232;2022-12-05T16:47:00;22.00;;;11.23;;
4460;SDS011;2243;48.812;9.232;2022-12-05T16:49:32;16.13;;;11.03;;
4460;SDS011;2243;48.812;9.232;2022-12-05T16:54:45;20.27;;;12.37;;
4460;SDS011;2243;48.812;9.232;2022-12-05T16:57:17;21.53;;;12.63;;
4460;SDS011;2243;48.812;9.232;2022-12-05T16:59:49;31.13;;;13.23;;
4460;SDS011;2243;48.812;9.232;2022-12-05T17:02:20;20.27;;;12.20;;
4460;SDS011;2243;48.812;9.232;2022-12-05T17:04:51;19.40;;;12.90;;
4460;SDS011;2243;48.812;9.232;2022-12-05T17:07:32;21.37;;;13.37;;
4460;SDS011;2243;48.812;9.232;2022-12-05T17:10:03;23.70;;;12.63;;
4460;SDS011;2243;48.812;9.232;2022-12-05T17:12:36;24.60;;;12.97;;
4460;SDS011;2243;48.812;9.232;2022-12-05T17:15:12;23.23;;;13.37;;
4460;SDS011;2243;48.812;9.232;2022-12-05T17:17:47;25.40;;;13.03;;
4460;SDS011;2243;48.812;9.232;2022-12-05T17:20:20;17.70;;;12.23;;
4460;SDS011;2243;48.812;9.232;2022-12-05T17:22:51;14.70;;;10.60;;
4460;SDS011;2243;48.812;9.232;2022-12-05T17:25:27;16.47;;;11.43;;
4460;SDS011;2243;48.812;9.232;2022-12-05T17:28:05;18.07;;;12.40;;
4460;SDS011;2243;48.812;9.232;2022-12-05T17:30:39;22.43;;;11.80;;
4460;SDS011;2243;48.812;9.232;2022-12-05T17:33:17;15.03;;;11.40;;
4460;SDS011;2243;48.812;9.232;2022-12-05T17:35:49;23.33;;;12.70;;
4460;SDS011;2243;48.812;9.232;2022-12-05T17:38:21;20.83;;;12.73;;
4460;SDS011;2243;48.812;9.232;2022-12-05T17:40:52;23.23;;;11.70;;
4460;SDS011;2243;48.812;9.232;2022-12-05T17:43:26;19.23;;;11.57;;
4460;SDS011;2243;48.812;9.232;2022-12-05T17:46:00;17.87;;;11.77;;
4460;SDS011;2243;48.812;9.232;2022-12-05T17:48:33;15.23;;;11.20;;
4460;SDS011;2243;48.812;9.232;2022-12-05T17:51:04;18.20;;;12.77;;
4460;SDS011;2243;48.812;9.232;2022-12-05T17:53:40;20.70;;;12.80;;
4460;SDS011;2243;48.812;9.232;2022-12-05T17:56:13;18.90;;;13.53;;
4460;SDS011;2243;48.812;9.232;2022-12-05T17:58:45;19.50;;;12.40;;
4460;SDS011;2243;48.812;9.232;2022-12-05T18:01:17;22.40;;;13.07;;
4460;SDS011;2243;48.812;9.232;2022-12-05T18:03:50;20.30;;;12.97;;
4460;SDS011;2243;48.812;9.232;2022-12-05T18:06:21;20.80;;;13.33;;
4460;SDS011;2243;48.812;9.232;2022-12-05T18:08:52;20.83;;;14.17;;
4460;SDS011;2243;48.812;9.232;2022-12-05T18:11:23;18.40;;;11.60;;
4460;SDS011;2243;48.812;9.232;2022-12-05T18:13:57;16.87;;;12.10;;
4460;SDS011;2243;48.812;9.232;2022-12-05T18:16:29;23.07;;;15.80;;
4460;SDS011;2243;48.812;9.232;2022-12-05T18:19:00;20.33;;;13.80;;
4460;SDS011;2243;48.812;9.232;2022-12-05T18:21:31;18.40;;;12.40;;
4460;SDS011;2243;48.812;9.232;2022-12-05T18:24:02;19.20;;;13.20;;
4460;SDS011;2243;48.812;9.232;2022-12-05T18:26:33;22.03;;;13.80;;
4460;SDS011;2243;48.812;9.232;2022-12-05T18:29:04;20.30;;;12.57;;
4460;SDS011;2243;48.812;9.232;2022-12-05T18:31:35;18.77;;;12.13;;
4460;SDS011;2243;48.812;9.232;2022-12-05T18:34:07;17.10;;;12.77;;
4460;SDS011;2243;48.812;9.232;2022-12-05T18:36:38;22.17;;;14.07;;
4460;SDS011;2243;48.812;9.232;2022-12-05T18:39:11;20.37;;;12.43;;
4460;SDS011;2243;48.812;9.232;2022-12-05T18:41:43;14.93;;;11.90;;
4460;SDS011;2243;48.812;9.232;2022-12-05T18:44:14;17.20;;;11.87;;
4460;SDS011;2243;48.812;9.232;2022-12-05T18:46:45;22.97;;;12.83;;
4460;SDS011;2243;48.812;9.232;2022-12-05T18:49:16;23.10;;;13.00;;
4460;SDS011;2243;48.812;9.232;2022-12-05T18:51:47;19.07;;;13.47;;
4460;SDS011;2243;48.812;9.232;2022-12-05T18:54:19;26.03;;;13.17;;